Porter Square, Massachusetts
Current Conditions -  °F | °C
As of 9:54 AM on Saturday 25 Oct 2014 (Local Time) from KBOS Reporting Station
Few Clouds Few Clouds  
Wind Chill: 53°   Ceiling: Unl
Heat Index: 53°   Visibility: 10mi
Dew Point: 41°   Wind: 10mph
Humidity: 64%   Direction: 270°W
Pressure: 29.73"   Gusts: NA
Location:  42.3933°N, 71.1333°W
Report Text: KBOS 251354Z 27009KT 10SM FEW140 12/05 A2973 RMK AO2 SLP068 T01170050
Loading
Personal Weather Stations






























Interactive Weather Map
Tropical Storm Tracking
New forecast layout! Learn more

10-Day Weather Forecast

Advertisements
Track Severe Weather on mobile